Archival Weather

NSFA McMurdo Sound

NSFA McMurdo Sound, Antarctica (NZCM)

Report from: Saturday, February 24, 2024 11:55 AM UTC
Current time: Wednesday, April 24, 2024 7:38 PM UTC

Current weather – Weather history – Daily summaries
Weather forecast

Temperature-16.6°C (2.1°F)
Wind chill-22.8°C (-9.0°F)
Dew point-31.3°C (-24.3°F)
Winds 5 kts (2.6 m/s, 5.8 mph) Vrb
Winds variableWinds variable
Visibility6.2 mi. (10 km)
Clouds Sky clear
Altimeter29.18 in.Hg (988 mB)
Relative humidity27 %
Density altitude-6,542 ft. (-1,994 m)
Sea-level pressure108.9 kPa (1089 mB, 32.15 in.Hg)
Max temp last 6 hours-12.7°C (9.1°F)
Min temp last 6 hours-17.8°C (-0.0°F)
Max temp last 24 hours-12.7°C (9.1°F)
Min temp last 24 hours-23.1°C (-9.6°F)
Remarks Fully automated report
Automated weather observing station with precipitation discriminator
Pressure falling, then rising
Flight conditions Visual Meteorological Conditions
Raw dataNZCM 241155Z AUTO VRB05KT 9999 CLR M17/M31 A2918 RMK AO2 SLP887 T11661313 11127 21178 411271231 55004
An error has occurred. This application may no longer respond until reloaded. Reload 🗙